This is the latest recevied weather packets stored in our database for station/object SQ5OUZ-1. If no packets are shown the sender has not sent any weather packets the latest 10 day(s).
| Time | Temp. | Humidity | Pressure | Rain* | Wind** | Luminosity | Snow |
|---|---|---|---|---|---|---|---|
| 1777752504 | 16.67° C | 44% | 1021.1 hPa | - | - | - | - |
| 1777751600 | 16.67° C | 42% | 1021.1 hPa | - | - | - | - |
| 1777750697 | 17.22° C | 40% | 1021.2 hPa | - | - | - | - |
| 1777749794 | 17.78° C | 38% | 1021.2 hPa | - | - | - | - |
| 1777748891 | 18.33° C | 36% | 1021.2 hPa | - | - | - | - |
| 1777747987 | 18.33° C | 34% | 1021.1 hPa | - | - | - | - |
| 1777747084 | 18.89° C | 34% | 1021 hPa | - | - | - | - |
| 1777746180 | 19.44° C | 32% | 1021 hPa | - | - | - | - |
| 1777745276 | 20° C | 30% | 1020.9 hPa | - | - | - | - |
| 1777744373 | 20.56° C | 29% | 1020.9 hPa | - | - | - | - |
| 1777743470 | 21.11° C | 28% | 1020.8 hPa | - | - | - | - |
| 1777742567 | 21.11° C | 27% | 1020.9 hPa | - | - | - | - |
| 1777741664 | 21.67° C | 27% | 1020.9 hPa | - | - | - | - |
| 1777740199 | 21.67° C | 26% | 1021 hPa | - | - | - | - |
| 1777739295 | 22.22° C | 26% | 1021.1 hPa | - | - | - | - |
| 1777738392 | 22.22° C | 26% | 1021.2 hPa | - | - | - | - |
| 1777737489 | 22.22° C | 26% | 1021.3 hPa | - | - | - | - |
| 1777736585 | 22.22° C | 26% | 1021.5 hPa | - | - | - | - |
| 1777735682 | 22.78° C | 25% | 1021.7 hPa | - | - | - | - |
| 1777734779 | 22.78° C | 26% | 1021.8 hPa | - | - | - | - |
| 1777733876 | 22.78° C | 25% | 1021.9 hPa | - | - | - | - |
| 1777732973 | 22.78° C | 25% | 1022.1 hPa | - | - | - | - |
| 1777732069 | 22.78° C | 24% | 1022.2 hPa | - | - | - | - |
| 1777731165 | 23.33° C | 25% | 1022.3 hPa | - | - | - | - |
| 1777648355 | 19.44° C | 31% | 1024.5 hPa | - | - | - | - |
* Rain since midnight (hover to see other rain measurements)
** Current wind speed in m/s (hover to see current wind gust speed)